sensor_id;sensor_type;location;lat;lon;timestamp;temperature;humidity
5226;DHT22;2632;51.666;7.146;2022-07-23T00:00:16;17.10;95.70
5226;DHT22;2632;51.666;7.146;2022-07-23T00:02:43;17.20;95.80
5226;DHT22;2632;51.666;7.146;2022-07-23T00:05:10;17.20;95.70
5226;DHT22;2632;51.666;7.146;2022-07-23T00:07:37;17.30;95.20
5226;DHT22;2632;51.666;7.146;2022-07-23T00:10:04;16.90;95.40
5226;DHT22;2632;51.666;7.146;2022-07-23T00:12:31;17.20;95.70
5226;DHT22;2632;51.666;7.146;2022-07-23T00:14:58;17.10;95.30
5226;DHT22;2632;51.666;7.146;2022-07-23T00:17:25;17.10;96.00
5226;DHT22;2632;51.666;7.146;2022-07-23T00:19:52;17.10;96.10
5226;DHT22;2632;51.666;7.146;2022-07-23T00:22:20;17.20;95.90
5226;DHT22;2632;51.666;7.146;2022-07-23T00:24:46;17.10;95.50
5226;DHT22;2632;51.666;7.146;2022-07-23T00:27:33;17.00;95.50
5226;DHT22;2632;51.666;7.146;2022-07-23T00:30:00;17.10;95.00
5226;DHT22;2632;51.666;7.146;2022-07-23T00:32:26;17.00;95.10
5226;DHT22;2632;51.666;7.146;2022-07-23T00:35:13;17.00;95.30
5226;DHT22;2632;51.666;7.146;2022-07-23T00:37:40;16.90;95.10
5226;DHT22;2632;51.666;7.146;2022-07-23T00:40:07;16.80;95.50
5226;DHT22;2632;51.666;7.146;2022-07-23T00:42:34;16.80;95.90
5226;DHT22;2632;51.666;7.146;2022-07-23T00:45:01;16.80;95.80
5226;DHT22;2632;51.666;7.146;2022-07-23T00:47:27;16.90;95.80
5226;DHT22;2632;51.666;7.146;2022-07-23T00:49:54;16.70;96.10
5226;DHT22;2632;51.666;7.146;2022-07-23T00:52:21;16.80;95.60
5226;DHT22;2632;51.666;7.146;2022-07-23T00:54:48;16.70;95.50
5226;DHT22;2632;51.666;7.146;2022-07-23T00:57:15;16.60;95.40
5226;DHT22;2632;51.666;7.146;2022-07-23T00:59:42;16.70;95.40
5226;DHT22;2632;51.666;7.146;2022-07-23T01:02:08;16.70;95.20
5226;DHT22;2632;51.666;7.146;2022-07-23T01:04:35;16.70;96.10
5226;DHT22;2632;51.666;7.146;2022-07-23T01:07:02;16.70;96.00
5226;DHT22;2632;51.666;7.146;2022-07-23T01:09:29;16.60;95.80
5226;DHT22;2632;51.666;7.146;2022-07-23T01:11:57;16.50;95.90
5226;DHT22;2632;51.666;7.146;2022-07-23T01:14:25;16.50;95.70
5226;DHT22;2632;51.666;7.146;2022-07-23T01:16:51;16.50;96.00
5226;DHT22;2632;51.666;7.146;2022-07-23T01:19:18;16.50;95.80
5226;DHT22;2632;51.666;7.146;2022-07-23T01:21:48;16.60;96.10
5226;DHT22;2632;51.666;7.146;2022-07-23T01:24:17;16.50;96.10
5226;DHT22;2632;51.666;7.146;2022-07-23T01:26:47;16.50;95.90
5226;DHT22;2632;51.666;7.146;2022-07-23T01:29:14;16.50;95.90
5226;DHT22;2632;51.666;7.146;2022-07-23T01:31:41;16.60;96.00
5226;DHT22;2632;51.666;7.146;2022-07-23T01:34:08;16.60;95.70
5226;DHT22;2632;51.666;7.146;2022-07-23T01:36:36;16.50;95.70
5226;DHT22;2632;51.666;7.146;2022-07-23T01:39:04;16.40;95.90
5226;DHT22;2632;51.666;7.146;2022-07-23T01:41:31;16.40;95.90
5226;DHT22;2632;51.666;7.146;2022-07-23T01:43:58;16.30;96.10
5226;DHT22;2632;51.666;7.146;2022-07-23T01:46:25;16.40;96.40
5226;DHT22;2632;51.666;7.146;2022-07-23T01:48:52;16.40;96.30
5226;DHT22;2632;51.666;7.146;2022-07-23T01:51:18;16.30;96.30
5226;DHT22;2632;51.666;7.146;2022-07-23T01:53:45;16.40;96.60
5226;DHT22;2632;51.666;7.146;2022-07-23T01:56:12;16.50;96.80
5226;DHT22;2632;51.666;7.146;2022-07-23T01:58:38;16.50;96.60
5226;DHT22;2632;51.666;7.146;2022-07-23T02:01:05;16.60;96.50
5226;DHT22;2632;51.666;7.146;2022-07-23T02:03:32;16.50;96.30
5226;DHT22;2632;51.666;7.146;2022-07-23T02:05:58;16.60;95.90
5226;DHT22;2632;51.666;7.146;2022-07-23T02:08:25;16.60;95.90
5226;DHT22;2632;51.666;7.146;2022-07-23T02:10:51;16.50;96.10
5226;DHT22;2632;51.666;7.146;2022-07-23T02:13:18;16.40;95.50
5226;DHT22;2632;51.666;7.146;2022-07-23T02:15:46;16.40;95.80
5226;DHT22;2632;51.666;7.146;2022-07-23T02:18:13;16.30;95.70
5226;DHT22;2632;51.666;7.146;2022-07-23T02:20:40;16.30;95.40
5226;DHT22;2632;51.666;7.146;2022-07-23T02:23:07;16.30;95.60
5226;DHT22;2632;51.666;7.146;2022-07-23T02:25:34;16.20;95.70
5226;DHT22;2632;51.666;7.146;2022-07-23T02:28:01;16.20;95.80
5226;DHT22;2632;51.666;7.146;2022-07-23T02:30:28;16.10;95.70
5226;DHT22;2632;51.666;7.146;2022-07-23T02:32:55;16.10;95.70
5226;DHT22;2632;51.666;7.146;2022-07-23T02:35:21;16.00;95.50
5226;DHT22;2632;51.666;7.146;2022-07-23T02:37:48;16.10;95.80
5226;DHT22;2632;51.666;7.146;2022-07-23T02:40:16;16.00;95.90
5226;DHT22;2632;51.666;7.146;2022-07-23T02:42:43;16.10;96.00
5226;DHT22;2632;51.666;7.146;2022-07-23T02:45:10;16.00;95.80
5226;DHT22;2632;51.666;7.146;2022-07-23T02:47:37;16.00;95.70
5226;DHT22;2632;51.666;7.146;2022-07-23T02:50:04;15.80;95.80
5226;DHT22;2632;51.666;7.146;2022-07-23T02:52:31;15.80;95.90
5226;DHT22;2632;51.666;7.146;2022-07-23T02:54:58;15.80;96.20
5226;DHT22;2632;51.666;7.146;2022-07-23T02:57:25;15.80;95.90
5226;DHT22;2632;51.666;7.146;2022-07-23T02:59:51;15.80;96.00
5226;DHT22;2632;51.666;7.146;2022-07-23T03:02:18;15.80;96.10
5226;DHT22;2632;51.666;7.146;2022-07-23T03:04:45;15.80;95.90
5226;DHT22;2632;51.666;7.146;2022-07-23T03:07:11;15.80;95.80
5226;DHT22;2632;51.666;7.146;2022-07-23T03:09:38;15.80;95.80
5226;DHT22;2632;51.666;7.146;2022-07-23T03:12:05;15.80;95.90
5226;DHT22;2632;51.666;7.146;2022-07-23T03:14:39;15.70;96.10
5226;DHT22;2632;51.666;7.146;2022-07-23T03:17:06;15.70;96.00
5226;DHT22;2632;51.666;7.146;2022-07-23T03:19:32;15.60;96.10
5226;DHT22;2632;51.666;7.146;2022-07-23T03:21:59;15.60;96.20
5226;DHT22;2632;51.666;7.146;2022-07-23T03:24:26;15.60;96.10
5226;DHT22;2632;51.666;7.146;2022-07-23T03:27:12;15.60;96.30
5226;DHT22;2632;51.666;7.146;2022-07-23T03:29:39;15.60;96.10
5226;DHT22;2632;51.666;7.146;2022-07-23T03:32:06;15.60;96.50
5226;DHT22;2632;51.666;7.146;2022-07-23T03:34:33;15.60;96.20
5226;DHT22;2632;51.666;7.146;2022-07-23T03:36:59;15.50;96.20
5226;DHT22;2632;51.666;7.146;2022-07-23T03:39:28;15.50;96.10
5226;DHT22;2632;51.666;7.146;2022-07-23T03:41:55;15.50;96.10
5226;DHT22;2632;51.666;7.146;2022-07-23T03:44:22;15.50;96.40
5226;DHT22;2632;51.666;7.146;2022-07-23T03:46:49;15.40;96.00
5226;DHT22;2632;51.666;7.146;2022-07-23T03:49:16;15.50;96.20
5226;DHT22;2632;51.666;7.146;2022-07-23T03:51:43;15.50;96.20
5226;DHT22;2632;51.666;7.146;2022-07-23T03:54:09;15.50;96.30
5226;DHT22;2632;51.666;7.146;2022-07-23T03:56:36;15.40;96.10
5226;DHT22;2632;51.666;7.146;2022-07-23T03:59:03;15.40;96.10
5226;DHT22;2632;51.666;7.146;2022-07-23T04:01:30;15.30;96.30
5226;DHT22;2632;51.666;7.146;2022-07-23T04:03:57;15.30;96.30
5226;DHT22;2632;51.666;7.146;2022-07-23T04:06:24;15.20;96.30
5226;DHT22;2632;51.666;7.146;2022-07-23T04:08:50;15.20;96.40
5226;DHT22;2632;51.666;7.146;2022-07-23T04:11:17;15.30;96.30
5226;DHT22;2632;51.666;7.146;2022-07-23T04:13:44;15.20;96.20
5226;DHT22;2632;51.666;7.146;2022-07-23T04:16:11;15.20;96.20
5226;DHT22;2632;51.666;7.146;2022-07-23T04:18:38;15.30;96.50
5226;DHT22;2632;51.666;7.146;2022-07-23T04:21:04;15.30;96.20
5226;DHT22;2632;51.666;7.146;2022-07-23T04:23:31;15.30;96.40
5226;DHT22;2632;51.666;7.146;2022-07-23T04:25:58;15.20;96.70
5226;DHT22;2632;51.666;7.146;2022-07-23T04:28:24;15.20;96.50
5226;DHT22;2632;51.666;7.146;2022-07-23T04:30:51;15.30;96.70
5226;DHT22;2632;51.666;7.146;2022-07-23T04:33:18;15.30;96.60
5226;DHT22;2632;51.666;7.146;2022-07-23T04:35:45;15.40;96.80
5226;DHT22;2632;51.666;7.146;2022-07-23T04:38:14;15.50;96.20
5226;DHT22;2632;51.666;7.146;2022-07-23T04:40:41;15.50;96.40
5226;DHT22;2632;51.666;7.146;2022-07-23T04:43:07;15.40;96.40
5226;DHT22;2632;51.666;7.146;2022-07-23T04:45:34;15.40;96.50
5226;DHT22;2632;51.666;7.146;2022-07-23T04:48:01;15.30;96.60
5226;DHT22;2632;51.666;7.146;2022-07-23T04:50:27;15.30;97.10
5226;DHT22;2632;51.666;7.146;2022-07-23T04:52:54;15.30;97.20
5226;DHT22;2632;51.666;7.146;2022-07-23T04:55:21;15.40;97.20
5226;DHT22;2632;51.666;7.146;2022-07-23T04:57:47;15.40;97.10
5226;DHT22;2632;51.666;7.146;2022-07-23T05:00:14;15.40;96.80
5226;DHT22;2632;51.666;7.146;2022-07-23T05:02:41;15.50;96.90
5226;DHT22;2632;51.666;7.146;2022-07-23T05:05:08;15.40;96.80
5226;DHT22;2632;51.666;7.146;2022-07-23T05:07:34;15.60;97.00
5226;DHT22;2632;51.666;7.146;2022-07-23T05:10:01;15.60;97.00
5226;DHT22;2632;51.666;7.146;2022-07-23T05:12:28;15.70;97.10
5226;DHT22;2632;51.666;7.146;2022-07-23T05:14:54;15.70;97.30
5226;DHT22;2632;51.666;7.146;2022-07-23T05:17:21;15.80;97.10
5226;DHT22;2632;51.666;7.146;2022-07-23T05:19:48;15.80;96.80
5226;DHT22;2632;51.666;7.146;2022-07-23T05:22:14;15.80;96.80
5226;DHT22;2632;51.666;7.146;2022-07-23T05:24:41;15.80;96.60
5226;DHT22;2632;51.666;7.146;2022-07-23T05:27:09;15.80;96.80
5226;DHT22;2632;51.666;7.146;2022-07-23T05:29:36;16.00;96.70
5226;DHT22;2632;51.666;7.146;2022-07-23T05:32:02;15.90;96.80
5226;DHT22;2632;51.666;7.146;2022-07-23T05:34:29;16.00;97.00
5226;DHT22;2632;51.666;7.146;2022-07-23T05:36:56;15.90;97.10
5226;DHT22;2632;51.666;7.146;2022-07-23T05:39:23;16.00;97.10
5226;DHT22;2632;51.666;7.146;2022-07-23T05:41:49;16.00;97.10
5226;DHT22;2632;51.666;7.146;2022-07-23T05:44:16;16.00;96.90
5226;DHT22;2632;51.666;7.146;2022-07-23T05:46:42;16.00;96.90
5226;DHT22;2632;51.666;7.146;2022-07-23T05:49:09;16.10;96.90
5226;DHT22;2632;51.666;7.146;2022-07-23T05:51:36;16.10;97.10
5226;DHT22;2632;51.666;7.146;2022-07-23T05:54:03;16.20;97.10
5226;DHT22;2632;51.666;7.146;2022-07-23T05:56:29;16.20;97.10
5226;DHT22;2632;51.666;7.146;2022-07-23T05:58:56;16.30;96.90
5226;DHT22;2632;51.666;7.146;2022-07-23T06:01:23;16.30;96.80
5226;DHT22;2632;51.666;7.146;2022-07-23T06:03:49;16.40;96.80
5226;DHT22;2632;51.666;7.146;2022-07-23T06:06:16;16.50;96.10
5226;DHT22;2632;51.666;7.146;2022-07-23T06:08:43;16.60;96.10
5226;DHT22;2632;51.666;7.146;2022-07-23T06:11:09;16.60;96.20
5226;DHT22;2632;51.666;7.146;2022-07-23T06:13:36;16.40;96.40
5226;DHT22;2632;51.666;7.146;2022-07-23T06:16:03;16.50;96.50
5226;DHT22;2632;51.666;7.146;2022-07-23T06:18:30;16.50;96.20
5226;DHT22;2632;51.666;7.146;2022-07-23T06:20:56;16.60;95.70
5226;DHT22;2632;51.666;7.146;2022-07-23T06:23:26;16.70;95.90
5226;DHT22;2632;51.666;7.146;2022-07-23T06:25:52;16.70;95.70
5226;DHT22;2632;51.666;7.146;2022-07-23T06:28:19;16.70;96.10
5226;DHT22;2632;51.666;7.146;2022-07-23T06:30:46;16.70;96.10
5226;DHT22;2632;51.666;7.146;2022-07-23T06:33:13;16.80;95.40
5226;DHT22;2632;51.666;7.146;2022-07-23T06:35:40;16.80;95.70
5226;DHT22;2632;51.666;7.146;2022-07-23T06:38:07;16.90;96.10
5226;DHT22;2632;51.666;7.146;2022-07-23T06:40:34;16.90;96.20
5226;DHT22;2632;51.666;7.146;2022-07-23T06:43:00;17.00;96.20
5226;DHT22;2632;51.666;7.146;2022-07-23T06:45:27;17.10;95.70
5226;DHT22;2632;51.666;7.146;2022-07-23T06:47:54;17.10;95.60
5226;DHT22;2632;51.666;7.146;2022-07-23T06:50:20;17.20;95.40
5226;DHT22;2632;51.666;7.146;2022-07-23T06:52:47;17.20;95.00
5226;DHT22;2632;51.666;7.146;2022-07-23T06:55:14;17.20;94.80
5226;DHT22;2632;51.666;7.146;2022-07-23T06:57:41;17.20;95.00
5226;DHT22;2632;51.666;7.146;2022-07-23T07:00:08;17.30;94.70
5226;DHT22;2632;51.666;7.146;2022-07-23T07:02:35;17.40;94.60
5226;DHT22;2632;51.666;7.146;2022-07-23T07:05:02;17.30;94.70
5226;DHT22;2632;51.666;7.146;2022-07-23T07:07:31;17.40;94.50
5226;DHT22;2632;51.666;7.146;2022-07-23T07:09:58;17.60;94.20
5226;DHT22;2632;51.666;7.146;2022-07-23T07:12:25;17.90;93.30
5226;DHT22;2632;51.666;7.146;2022-07-23T07:14:51;18.00;93.70
5226;DHT22;2632;51.666;7.146;2022-07-23T07:17:19;17.90;93.20
5226;DHT22;2632;51.666;7.146;2022-07-23T07:19:46;17.80;93.30
5226;DHT22;2632;51.666;7.146;2022-07-23T07:22:13;17.60;93.90
5226;DHT22;2632;51.666;7.146;2022-07-23T07:24:39;17.80;93.90
5226;DHT22;2632;51.666;7.146;2022-07-23T07:27:06;17.70;94.10
5226;DHT22;2632;51.666;7.146;2022-07-23T07:29:33;17.90;93.50
5226;DHT22;2632;51.666;7.146;2022-07-23T07:31:59;17.90;93.70
5226;DHT22;2632;51.666;7.146;2022-07-23T07:34:26;17.90;93.90
5226;DHT22;2632;51.666;7.146;2022-07-23T07:36:53;18.00;93.40
5226;DHT22;2632;51.666;7.146;2022-07-23T07:39:19;18.00;93.80
5226;DHT22;2632;51.666;7.146;2022-07-23T07:41:48;18.10;92.80
5226;DHT22;2632;51.666;7.146;2022-07-23T07:44:15;18.40;92.20
5226;DHT22;2632;51.666;7.146;2022-07-23T07:46:42;18.60;91.50
5226;DHT22;2632;51.666;7.146;2022-07-23T07:49:09;18.70;91.20
5226;DHT22;2632;51.666;7.146;2022-07-23T07:51:42;18.90;91.50
5226;DHT22;2632;51.666;7.146;2022-07-23T07:54:11;18.70;91.50
5226;DHT22;2632;51.666;7.146;2022-07-23T07:56:38;18.70;90.30
5226;DHT22;2632;51.666;7.146;2022-07-23T07:59:05;18.80;90.80
5226;DHT22;2632;51.666;7.146;2022-07-23T08:01:33;18.90;90.50
5226;DHT22;2632;51.666;7.146;2022-07-23T08:04:00;19.00;90.20
5226;DHT22;2632;51.666;7.146;2022-07-23T08:06:27;19.10;90.80
5226;DHT22;2632;51.666;7.146;2022-07-23T08:08:54;19.10;88.50
5226;DHT22;2632;51.666;7.146;2022-07-23T08:11:21;19.20;90.00
5226;DHT22;2632;51.666;7.146;2022-07-23T08:13:50;19.30;89.60
5226;DHT22;2632;51.666;7.146;2022-07-23T08:16:17;19.40;88.50
5226;DHT22;2632;51.666;7.146;2022-07-23T08:18:44;19.50;87.80
5226;DHT22;2632;51.666;7.146;2022-07-23T08:21:11;19.50;86.90
5226;DHT22;2632;51.666;7.146;2022-07-23T08:23:38;19.40;86.50
5226;DHT22;2632;51.666;7.146;2022-07-23T08:26:04;19.40;87.60
5226;DHT22;2632;51.666;7.146;2022-07-23T08:28:31;19.50;87.70
5226;DHT22;2632;51.666;7.146;2022-07-23T08:30:59;19.60;87.30
5226;DHT22;2632;51.666;7.146;2022-07-23T08:33:27;19.80;86.30
5226;DHT22;2632;51.666;7.146;2022-07-23T08:36:01;19.70;86.00
5226;DHT22;2632;51.666;7.146;2022-07-23T08:38:30;19.70;86.90
5226;DHT22;2632;51.666;7.146;2022-07-23T08:40:57;19.80;84.90
5226;DHT22;2632;51.666;7.146;2022-07-23T08:43:29;19.90;85.50
5226;DHT22;2632;51.666;7.146;2022-07-23T08:45:58;19.90;85.00
5226;DHT22;2632;51.666;7.146;2022-07-23T08:48:36;20.00;84.90
5226;DHT22;2632;51.666;7.146;2022-07-23T08:51:06;19.90;86.90
5226;DHT22;2632;51.666;7.146;2022-07-23T08:53:34;20.00;85.10
5226;DHT22;2632;51.666;7.146;2022-07-23T08:56:05;20.10;82.20
5226;DHT22;2632;51.666;7.146;2022-07-23T08:58:34;20.10;84.40
5226;DHT22;2632;51.666;7.146;2022-07-23T09:01:01;20.10;84.30
5226;DHT22;2632;51.666;7.146;2022-07-23T09:03:33;20.20;83.20
5226;DHT22;2632;51.666;7.146;2022-07-23T09:06:01;20.20;81.90
5226;DHT22;2632;51.666;7.146;2022-07-23T09:08:40;20.30;83.50
5226;DHT22;2632;51.666;7.146;2022-07-23T09:11:12;20.40;83.80
5226;DHT22;2632;51.666;7.146;2022-07-23T09:16:23;20.60;81.90
5226;DHT22;2632;51.666;7.146;2022-07-23T09:18:52;20.60;81.30
5226;DHT22;2632;51.666;7.146;2022-07-23T09:21:25;20.70;81.90
5226;DHT22;2632;51.666;7.146;2022-07-23T09:24:00;20.70;81.90
5226;DHT22;2632;51.666;7.146;2022-07-23T09:26:43;20.70;82.00
5226;DHT22;2632;51.666;7.146;2022-07-23T09:29:25;20.80;78.50
5226;DHT22;2632;51.666;7.146;2022-07-23T09:32:00;20.90;79.40
5226;DHT22;2632;51.666;7.146;2022-07-23T09:37:08;21.10;78.50
5226;DHT22;2632;51.666;7.146;2022-07-23T09:39:35;21.10;78.10
5226;DHT22;2632;51.666;7.146;2022-07-23T09:42:22;21.00;80.30
5226;DHT22;2632;51.666;7.146;2022-07-23T09:44:50;21.10;79.10
5226;DHT22;2632;51.666;7.146;2022-07-23T09:47:18;21.10;80.20
5226;DHT22;2632;51.666;7.146;2022-07-23T09:50:09;21.20;75.40
5226;DHT22;2632;51.666;7.146;2022-07-23T09:52:43;21.10;77.10
5226;DHT22;2632;51.666;7.146;2022-07-23T09:55:10;21.20;78.70
5226;DHT22;2632;51.666;7.146;2022-07-23T09:57:37;21.20;78.00
5226;DHT22;2632;51.666;7.146;2022-07-23T10:00:08;21.20;76.50
5226;DHT22;2632;51.666;7.146;2022-07-23T10:02:38;21.20;76.30
5226;DHT22;2632;51.666;7.146;2022-07-23T10:05:05;21.10;76.40
5226;DHT22;2632;51.666;7.146;2022-07-23T10:07:35;21.20;73.70
5226;DHT22;2632;51.666;7.146;2022-07-23T10:10:04;21.40;75.70
5226;DHT22;2632;51.666;7.146;2022-07-23T10:12:31;21.40;76.60
5226;DHT22;2632;51.666;7.146;2022-07-23T10:15:16;21.20;78.10
5226;DHT22;2632;51.666;7.146;2022-07-23T10:17:43;21.20;75.10
5226;DHT22;2632;51.666;7.146;2022-07-23T10:20:10;21.20;77.20
5226;DHT22;2632;51.666;7.146;2022-07-23T10:22:40;21.10;77.40
5226;DHT22;2632;51.666;7.146;2022-07-23T10:25:25;21.10;78.00
5226;DHT22;2632;51.666;7.146;2022-07-23T10:28:15;21.50;72.40
5226;DHT22;2632;51.666;7.146;2022-07-23T10:31:05;21.50;75.30
5226;DHT22;2632;51.666;7.146;2022-07-23T10:34:03;21.30;75.40
5226;DHT22;2632;51.666;7.146;2022-07-23T10:36:47;21.30;75.50
5226;DHT22;2632;51.666;7.146;2022-07-23T10:39:26;21.50;72.30
5226;DHT22;2632;51.666;7.146;2022-07-23T10:42:11;21.60;73.40
5226;DHT22;2632;51.666;7.146;2022-07-23T10:44:43;21.60;74.10
5226;DHT22;2632;51.666;7.146;2022-07-23T10:47:11;21.40;74.50
5226;DHT22;2632;51.666;7.146;2022-07-23T10:50:25;21.40;74.60
5226;DHT22;2632;51.666;7.146;2022-07-23T10:58:00;21.60;73.60
5226;DHT22;2632;51.666;7.146;2022-07-23T11:00:29;21.50;74.20
5226;DHT22;2632;51.666;7.146;2022-07-23T11:02:58;21.50;74.00
5226;DHT22;2632;51.666;7.146;2022-07-23T11:05:46;21.70;72.50
5226;DHT22;2632;51.666;7.146;2022-07-23T11:08:16;21.60;73.40
5226;DHT22;2632;51.666;7.146;2022-07-23T11:10:52;21.80;73.90
5226;DHT22;2632;51.666;7.146;2022-07-23T11:24:28;22.80;68.40
5226;DHT22;2632;51.666;7.146;2022-07-23T11:26:59;24.40;70.40
5226;DHT22;2632;51.666;7.146;2022-07-23T11:32:11;22.50;70.30
5226;DHT22;2632;51.666;7.146;2022-07-23T11:34:45;22.60;70.60
5226;DHT22;2632;51.666;7.146;2022-07-23T11:37:34;22.40;71.80
5226;DHT22;2632;51.666;7.146;2022-07-23T11:40:08;22.30;71.40
5226;DHT22;2632;51.666;7.146;2022-07-23T11:42:38;22.10;71.50
5226;DHT22;2632;51.666;7.146;2022-07-23T11:45:07;22.10;73.10
5226;DHT22;2632;51.666;7.146;2022-07-23T11:47:34;22.70;68.90
5226;DHT22;2632;51.666;7.146;2022-07-23T11:50:04;22.70;69.70
5226;DHT22;2632;51.666;7.146;2022-07-23T11:52:33;22.60;69.20
5226;DHT22;2632;51.666;7.146;2022-07-23T11:55:11;22.80;70.80
5226;DHT22;2632;51.666;7.146;2022-07-23T11:57:40;22.40;69.90
5226;DHT22;2632;51.666;7.146;2022-07-23T12:00:19;22.50;70.80
5226;DHT22;2632;51.666;7.146;2022-07-23T12:02:50;22.80;69.50
5226;DHT22;2632;51.666;7.146;2022-07-23T12:05:25;22.80;70.30
5226;DHT22;2632;51.666;7.146;2022-07-23T12:07:54;22.50;70.60
5226;DHT22;2632;51.666;7.146;2022-07-23T12:10:30;22.40;71.30
5226;DHT22;2632;51.666;7.146;2022-07-23T12:13:02;22.90;70.50
5226;DHT22;2632;51.666;7.146;2022-07-23T12:15:49;23.30;66.10
5226;DHT22;2632;51.666;7.146;2022-07-23T12:18:20;23.60;65.60
5226;DHT22;2632;51.666;7.146;2022-07-23T12:20:50;23.90;65.90
5226;DHT22;2632;51.666;7.146;2022-07-23T12:23:18;23.70;68.80
5226;DHT22;2632;51.666;7.146;2022-07-23T12:25:48;23.70;66.80
5226;DHT22;2632;51.666;7.146;2022-07-23T12:28:41;23.50;68.00
5226;DHT22;2632;51.666;7.146;2022-07-23T12:31:09;23.00;68.10
5226;DHT22;2632;51.666;7.146;2022-07-23T12:33:39;23.20;68.30
5226;DHT22;2632;51.666;7.146;2022-07-23T12:36:08;23.80;65.60
5226;DHT22;2632;51.666;7.146;2022-07-23T12:38:44;24.00;64.60
5226;DHT22;2632;51.666;7.146;2022-07-23T12:41:12;24.00;65.60
5226;DHT22;2632;51.666;7.146;2022-07-23T12:43:41;23.80;64.40
5226;DHT22;2632;51.666;7.146;2022-07-23T12:46:13;23.90;65.50
5226;DHT22;2632;51.666;7.146;2022-07-23T12:51:30;24.00;64.80
5226;DHT22;2632;51.666;7.146;2022-07-23T12:54:07;24.60;64.70
5226;DHT22;2632;51.666;7.146;2022-07-23T12:56:37;24.20;65.90
5226;DHT22;2632;51.666;7.146;2022-07-23T12:59:06;23.90;66.30
5226;DHT22;2632;51.666;7.146;2022-07-23T13:01:42;23.60;67.10
5226;DHT22;2632;51.666;7.146;2022-07-23T13:04:21;23.60;67.40
5226;DHT22;2632;51.666;7.146;2022-07-23T13:06:56;23.90;67.60
5226;DHT22;2632;51.666;7.146;2022-07-23T13:09:32;24.10;65.70
5226;DHT22;2632;51.666;7.146;2022-07-23T13:12:07;24.70;64.00
5226;DHT22;2632;51.666;7.146;2022-07-23T13:14:37;24.50;64.40
5226;DHT22;2632;51.666;7.146;2022-07-23T13:17:04;24.10;65.70
5226;DHT22;2632;51.666;7.146;2022-07-23T13:19:32;26.50;67.10
5226;DHT22;2632;51.666;7.146;2022-07-23T13:22:01;25.30;64.60
5226;DHT22;2632;51.666;7.146;2022-07-23T13:24:35;24.70;65.40
5226;DHT22;2632;51.666;7.146;2022-07-23T13:27:05;24.30;64.60
5226;DHT22;2632;51.666;7.146;2022-07-23T13:29:37;24.70;64.00
5226;DHT22;2632;51.666;7.146;2022-07-23T13:32:03;24.50;65.00
5226;DHT22;2632;51.666;7.146;2022-07-23T13:34:39;24.10;66.00
5226;DHT22;2632;51.666;7.146;2022-07-23T13:37:06;23.70;67.10
5226;DHT22;2632;51.666;7.146;2022-07-23T13:39:34;23.50;68.30
5226;DHT22;2632;51.666;7.146;2022-07-23T13:42:04;23.40;68.60
5226;DHT22;2632;51.666;7.146;2022-07-23T13:44:33;23.90;67.00
5226;DHT22;2632;51.666;7.146;2022-07-23T13:46:59;24.10;67.30
5226;DHT22;2632;51.666;7.146;2022-07-23T13:49:26;24.10;67.10
5226;DHT22;2632;51.666;7.146;2022-07-23T13:51:53;24.40;65.70
5226;DHT22;2632;51.666;7.146;2022-07-23T13:54:20;24.10;66.60
5226;DHT22;2632;51.666;7.146;2022-07-23T13:56:46;24.10;65.50
5226;DHT22;2632;51.666;7.146;2022-07-23T13:59:13;23.80;65.30
5226;DHT22;2632;51.666;7.146;2022-07-23T14:01:40;23.90;66.80
5226;DHT22;2632;51.666;7.146;2022-07-23T14:04:27;24.10;66.00
5226;DHT22;2632;51.666;7.146;2022-07-23T14:06:54;24.80;59.40
5226;DHT22;2632;51.666;7.146;2022-07-23T14:09:21;24.80;62.80
5226;DHT22;2632;51.666;7.146;2022-07-23T14:11:48;24.60;64.60
5226;DHT22;2632;51.666;7.146;2022-07-23T14:14:17;24.50;65.30
5226;DHT22;2632;51.666;7.146;2022-07-23T14:16:43;24.40;66.00
5226;DHT22;2632;51.666;7.146;2022-07-23T14:19:11;24.60;65.10
5226;DHT22;2632;51.666;7.146;2022-07-23T14:21:38;24.70;63.60
5226;DHT22;2632;51.666;7.146;2022-07-23T14:24:04;24.90;63.00
5226;DHT22;2632;51.666;7.146;2022-07-23T14:26:32;24.30;64.50
5226;DHT22;2632;51.666;7.146;2022-07-23T14:29:04;23.50;65.90
5226;DHT22;2632;51.666;7.146;2022-07-23T14:31:34;23.70;64.90
5226;DHT22;2632;51.666;7.146;2022-07-23T14:34:00;23.70;65.50
5226;DHT22;2632;51.666;7.146;2022-07-23T14:36:27;23.60;66.10
5226;DHT22;2632;51.666;7.146;2022-07-23T14:38:54;23.30;66.70
5226;DHT22;2632;51.666;7.146;2022-07-23T14:41:22;23.50;67.50
5226;DHT22;2632;51.666;7.146;2022-07-23T14:43:53;23.70;66.00
5226;DHT22;2632;51.666;7.146;2022-07-23T14:46:20;23.20;67.40
5226;DHT22;2632;51.666;7.146;2022-07-23T14:48:47;23.10;67.80
5226;DHT22;2632;51.666;7.146;2022-07-23T14:51:13;22.90;67.80
5226;DHT22;2632;51.666;7.146;2022-07-23T14:53:40;22.70;67.60
5226;DHT22;2632;51.666;7.146;2022-07-23T14:56:07;22.60;68.20
5226;DHT22;2632;51.666;7.146;2022-07-23T14:58:34;22.70;68.10
5226;DHT22;2632;51.666;7.146;2022-07-23T15:01:03;22.60;68.30
5226;DHT22;2632;51.666;7.146;2022-07-23T15:03:30;23.00;67.80
5226;DHT22;2632;51.666;7.146;2022-07-23T15:06:09;23.30;66.30
5226;DHT22;2632;51.666;7.146;2022-07-23T15:08:37;23.30;67.10
5226;DHT22;2632;51.666;7.146;2022-07-23T15:11:03;23.40;67.00
5226;DHT22;2632;51.666;7.146;2022-07-23T15:16:01;23.10;66.60
5226;DHT22;2632;51.666;7.146;2022-07-23T15:18:28;23.50;64.70
5226;DHT22;2632;51.666;7.146;2022-07-23T15:20:56;23.60;64.10
5226;DHT22;2632;51.666;7.146;2022-07-23T15:23:22;23.60;65.00
5226;DHT22;2632;51.666;7.146;2022-07-23T15:25:51;23.40;65.20
5226;DHT22;2632;51.666;7.146;2022-07-23T15:28:18;23.60;65.10
5226;DHT22;2632;51.666;7.146;2022-07-23T15:30:53;23.30;66.40
5226;DHT22;2632;51.666;7.146;2022-07-23T15:33:20;23.00;66.80
5226;DHT22;2632;51.666;7.146;2022-07-23T15:35:48;22.90;67.50
5226;DHT22;2632;51.666;7.146;2022-07-23T15:38:15;22.60;67.20
5226;DHT22;2632;51.666;7.146;2022-07-23T15:40:53;22.60;68.20
5226;DHT22;2632;51.666;7.146;2022-07-23T15:43:22;22.70;67.50
5226;DHT22;2632;51.666;7.146;2022-07-23T15:45:50;22.90;66.80
5226;DHT22;2632;51.666;7.146;2022-07-23T15:48:18;23.00;67.50
5226;DHT22;2632;51.666;7.146;2022-07-23T15:50:45;23.30;65.80
5226;DHT22;2632;51.666;7.146;2022-07-23T15:53:13;23.80;63.50
5226;DHT22;2632;51.666;7.146;2022-07-23T15:55:42;23.70;64.30
5226;DHT22;2632;51.666;7.146;2022-07-23T15:58:13;23.70;64.10
5226;DHT22;2632;51.666;7.146;2022-07-23T16:00:40;23.50;65.20
5226;DHT22;2632;51.666;7.146;2022-07-23T16:03:12;23.50;65.80
5226;DHT22;2632;51.666;7.146;2022-07-23T16:05:41;23.50;65.90
5226;DHT22;2632;51.666;7.146;2022-07-23T16:08:08;23.30;66.90
5226;DHT22;2632;51.666;7.146;2022-07-23T16:10:35;23.20;66.60
5226;DHT22;2632;51.666;7.146;2022-07-23T16:13:02;23.40;67.40
5226;DHT22;2632;51.666;7.146;2022-07-23T16:15:28;23.00;67.80
5226;DHT22;2632;51.666;7.146;2022-07-23T16:17:56;22.90;68.50
5226;DHT22;2632;51.666;7.146;2022-07-23T16:20:23;22.80;69.10
5226;DHT22;2632;51.666;7.146;2022-07-23T16:22:50;23.20;67.00
5226;DHT22;2632;51.666;7.146;2022-07-23T16:25:17;23.10;67.60
5226;DHT22;2632;51.666;7.146;2022-07-23T16:30:12;22.90;67.50
5226;DHT22;2632;51.666;7.146;2022-07-23T16:32:39;22.80;68.00
5226;DHT22;2632;51.666;7.146;2022-07-23T16:35:06;23.20;66.40
5226;DHT22;2632;51.666;7.146;2022-07-23T16:37:40;23.00;66.40
5226;DHT22;2632;51.666;7.146;2022-07-23T16:40:08;23.00;66.60
5226;DHT22;2632;51.666;7.146;2022-07-23T16:42:35;23.30;66.10
5226;DHT22;2632;51.666;7.146;2022-07-23T16:45:04;23.20;67.20